This demonstration page uses our WeatherBlox Daily Observations layout. Learn more.

Hourly Observations for June 18, 2017

Temp ( °F °C ) Dew Point ( °F °C ) Humidity (%) Winds ( mph kmh ) Pressure ( in mb ) Visibility ( mi km ) Precip ( " mm )
12:54 am 00:54 Clear 66 18.9 59 15 78 78 WNW 6 9 29.83 1010 10 16.0934 0 0
1:54 am 01:54 Clear 66 18.9 59 15 78 78 W 3 6 29.83 1010 10 16.0934 0 0
2:54 am 02:54 Clear 65 18.3 57 13.9 76 76 NW 9 15 29.83 1010 10 16.0934 0 0
3:54 am 03:54 Clear 63 17.2 56 13.3 78 78 W 5 7 29.85 1011 10 16.0934 0 0
4:54 am 04:54 Clear 62 16.7 55 12.8 78 78 WSW 7 11 29.88 1012 10 16.0934 0 0
5:54 am 05:54 Clear 62 16.7 54 12.2 75 75 W 10 17 29.89 1012 10 16.0934 0 0
6:54 am 06:54 Sunny 63 17.2 53 11.7 70 70 W 12 19 29.9 1013 10 16.0934 0 0
7:54 am 07:54 Sunny 66 18.9 53 11.7 63 63 WNW 14 22 29.91 1013 10 16.0934 0 0
8:54 am 08:54 Sunny 68 20 53 11.7 59 59 WNW 13 20 29.91 1013 10 16.0934 0 0
9:54 am 09:54 Sunny 71 21.7 53 11.7 53 53 W 14 22 29.91 1013 10 16.0934 0 0
10:54 am 10:54 Sunny 74 23.3 50 10 43 43 NW 18 30 29.9 1013 10 16.0934 0 0
11:54 am 11:54 Sunny 76 24.4 49 9.4 39 39 NNW 13 20 29.9 1013 10 16.0934 0 0
12:54 pm 12:54 Sunny 79 26.1 47 8.3 32 32 NNW 23 37 29.89 1012 10 16.0934 0 0
1:54 pm 13:54 Sunny 81 27.2 49 9.4 33 33 NNW 22 35 29.87 1012 10 16.0934 0 0
2:54 pm 14:54 Mostly Cloudy 81 27.2 47 8.3 30 30 NW 18 30 29.87 1011 10 16.0934 0 0
3:54 pm 15:54 Partly Cloudy 83 28.3 46 7.8 27 27 NW 15 24 29.86 1011 10 16.0934 0 0
4:54 pm 16:54 Sunny 82 27.8 46 7.8 28 28 N 15 24 29.85 1011 10 16.0934 0 0
5:54 pm 17:54 Mostly Sunny 81 27.2 46 7.8 29 29 NNW 14 22 29.85 1011 10 16.0934 0 0
6:54 pm 18:54 Sunny 82 27.8 46 7.8 28 28 NNW 10 17 29.86 1011 10 16.0934 0 0
7:54 pm 19:54 Sunny 80 26.7 47 8.3 31 31 NNW 9 15 29.86 1011 10 16.0934 0 0
8:54 pm 20:54 Sunny 77 25 49 9.4 37 37 WNW 3 6 29.87 1011 10 16.0934 0 0
9:54 pm 21:54 Mostly Cloudy 73 22.8 54 12.2 51 51 N 3 6 29.88 1012 10 16.0934 0 0.0254

Powered by AerisWeather